Time,TemperatureF,DewpointF,PressureIn,WindDirection,WindDirectionDegrees,WindSpeedMPH,WindSpeedGustMPH,Humidity,HourlyPrecipIn,Conditions,Clouds,dailyrainin,SoftwareType,DateUTC
2013-10-01 00:01:00,54.7,39.4,30.22,WNW,292,0.0,5.0,56,0.00,,,0.22,meteohub,2013-10-01 04:01:00,
2013-10-01 00:04:00,54.5,39.2,30.22,West,270,0.0,5.0,56,0.00,,,0.22,meteohub,2013-10-01 04:04:00,
2013-10-01 00:09:00,54.3,39.0,30.22,West,270,0.0,4.0,56,0.00,,,0.22,meteohub,2013-10-01 04:09:00,
2013-10-01 00:14:00,54.0,38.7,30.22,WNW,292,0.0,2.0,56,0.00,,,0.22,meteohub,2013-10-01 04:14:00,
2013-10-01 00:19:00,53.8,38.5,30.23,WNW,292,0.0,0.0,56,0.00,,,0.22,meteohub,2013-10-01 04:19:00,
2013-10-01 00:24:00,53.8,38.5,30.23,WSW,248,0.0,0.0,56,0.00,,,0.22,meteohub,2013-10-01 04:24:00,
2013-10-01 00:29:00,53.8,38.5,30.23,WNW,292,0.0,0.0,56,0.00,,,0.22,meteohub,2013-10-01 04:29:00,
2013-10-01 00:34:00,53.8,38.5,30.23,WSW,248,0.0,0.0,56,0.00,,,0.22,meteohub,2013-10-01 04:34:00,
2013-10-01 00:39:00,53.6,38.8,30.23,NNW,338,0.0,3.0,57,0.00,,,0.22,meteohub,2013-10-01 04:39:00,
2013-10-01 00:44:00,53.6,38.8,30.23,NNW,338,0.0,3.0,57,0.00,,,0.22,meteohub,2013-10-01 04:44:00,
2013-10-01 00:49:00,53.4,38.7,30.23,NNW,338,0.0,3.0,57,0.00,,,0.22,meteohub,2013-10-01 04:49:00,
2013-10-01 00:54:00,53.2,38.5,30.23,NW,315,0.0,2.0,57,0.00,,,0.22,meteohub,2013-10-01 04:54:00,
2013-10-01 00:59:00,53.1,38.3,30.23,NW,315,0.0,0.0,57,0.00,,,0.22,meteohub,2013-10-01 04:59:00,
2013-10-01 01:04:00,52.7,37.9,30.23,NW,315,0.0,0.0,57,0.00,,,0.22,meteohub,2013-10-01 05:04:00,
2013-10-01 01:10:00,52.7,38.3,30.23,NW,315,0.0,0.0,58,0.00,,,0.00,meteohub,2013-10-01 05:10:00,
2013-10-01 01:15:00,52.5,38.1,30.24,NW,315,0.0,0.0,58,0.00,,,0.00,meteohub,2013-10-01 05:15:00,
2013-10-01 01:20:00,52.5,38.7,30.24,NW,315,0.0,0.0,59,0.00,,,0.00,meteohub,2013-10-01 05:20:00,
2013-10-01 01:25:00,52.3,38.5,30.24,NW,315,0.0,0.0,59,0.00,,,0.00,meteohub,2013-10-01 05:25:00,
2013-10-01 01:30:00,52.3,38.5,30.24,NW,315,0.0,2.0,59,0.00,,,0.00,meteohub,2013-10-01 05:30:00,
2013-10-01 01:35:00,52.3,38.8,30.20,WNW,292,0.0,2.0,60,0.00,,,0.00,meteohub,2013-10-01 05:35:00,
2013-10-01 01:40:00,52.2,38.7,30.20,NW,315,0.0,0.0,60,0.00,,,0.00,meteohub,2013-10-01 05:40:00,
2013-10-01 01:45:00,52.3,38.8,30.20,WNW,292,0.0,0.0,60,0.00,,,0.00,meteohub,2013-10-01 05:45:00,
2013-10-01 01:50:00,52.3,39.4,30.20,NW,315,0.0,0.0,61,0.00,,,0.00,meteohub,2013-10-01 05:50:00,
2013-10-01 01:55:00,52.3,38.8,30.20,NW,315,0.0,0.0,60,0.00,,,0.00,meteohub,2013-10-01 05:55:00,
2013-10-01 02:01:00,52.3,38.8,30.20,NW,315,0.0,0.0,60,0.00,,,0.00,meteohub,2013-10-01 06:01:00,
2013-10-01 02:06:00,52.2,38.7,30.24,NW,315,0.0,0.0,60,0.00,,,0.00,meteohub,2013-10-01 06:06:00,
2013-10-01 02:11:00,52.2,38.7,30.24,NW,315,0.0,0.0,60,0.00,,,0.00,meteohub,2013-10-01 06:11:00,
2013-10-01 02:16:00,52.0,39.0,30.24,NW,315,0.0,0.0,61,0.00,,,0.00,meteohub,2013-10-01 06:16:00,
2013-10-01 02:21:00,52.0,39.0,30.24,WNW,292,0.0,0.0,61,0.00,,,0.00,meteohub,2013-10-01 06:21:00,
2013-10-01 02:26:00,52.0,39.4,30.24,WNW,292,0.0,0.0,62,0.00,,,0.00,meteohub,2013-10-01 06:26:00,
2013-10-01 02:31:00,52.0,39.4,30.24,WNW,292,0.0,0.0,62,0.00,,,0.00,meteohub,2013-10-01 06:31:00,
2013-10-01 02:36:00,52.0,39.7,30.24,NW,315,0.0,0.0,63,0.00,,,0.00,meteohub,2013-10-01 06:36:00,
2013-10-01 02:41:00,52.0,39.7,30.24,NNW,338,0.0,0.0,63,0.00,,,0.00,meteohub,2013-10-01 06:41:00,
2013-10-01 02:46:00,52.0,39.7,30.24,NNW,338,0.0,0.0,63,0.00,,,0.00,meteohub,2013-10-01 06:46:00,
2013-10-01 02:51:00,51.8,39.6,30.24,NNW,338,0.0,0.0,63,0.00,,,0.00,meteohub,2013-10-01 06:51:00,
2013-10-01 02:56:00,51.8,39.6,30.24,NNW,338,0.0,0.0,63,0.00,,,0.00,meteohub,2013-10-01 06:56:00,
2013-10-01 03:01:00,51.8,39.6,30.24,NW,315,0.0,0.0,63,0.00,,,0.00,meteohub,2013-10-01 07:01:00,
2013-10-01 03:06:00,51.8,39.6,30.24,NNW,338,2.0,0.0,63,0.00,,,0.00,meteohub,2013-10-01 07:06:00,
2013-10-01 03:11:00,51.8,39.6,30.24,NNW,338,2.0,3.0,63,0.00,,,0.00,meteohub,2013-10-01 07:11:00,
2013-10-01 03:16:00,51.6,39.9,30.21,NW,315,2.0,3.0,64,0.00,,,0.00,meteohub,2013-10-01 07:16:00,
2013-10-01 03:22:00,51.6,39.9,30.21,NW,315,2.0,3.0,64,0.00,,,0.00,meteohub,2013-10-01 07:22:00,
2013-10-01 03:27:00,51.4,39.7,30.21,NNW,338,2.0,3.0,64,0.00,,,0.00,meteohub,2013-10-01 07:27:00,
2013-10-01 03:32:00,51.4,39.7,30.21,NNW,338,2.0,3.0,64,0.00,,,0.00,meteohub,2013-10-01 07:32:00,
2013-10-01 03:37:00,51.4,39.7,30.21,NNW,338,3.0,3.0,64,0.00,,,0.00,meteohub,2013-10-01 07:37:00,
2013-10-01 03:42:00,51.3,39.6,30.21,NW,315,3.0,3.0,64,0.00,,,0.00,meteohub,2013-10-01 07:42:00,
2013-10-01 03:47:00,51.1,39.4,30.25,NNW,338,3.0,3.0,64,0.00,,,0.00,meteohub,2013-10-01 07:47:00,
2013-10-01 03:52:00,51.1,39.4,30.25,NNW,338,3.0,4.0,64,0.00,,,0.00,meteohub,2013-10-01 07:52:00,
2013-10-01 03:57:00,50.9,39.2,30.25,NW,315,3.0,4.0,64,0.00,,,0.00,meteohub,2013-10-01 07:57:00,
2013-10-01 04:02:00,50.7,39.0,30.22,NNW,338,2.0,4.0,64,0.00,,,0.00,meteohub,2013-10-01 08:02:00,
2013-10-01 04:07:00,50.7,39.4,30.22,NW,315,3.0,3.0,65,0.00,,,0.00,meteohub,2013-10-01 08:07:00,
2013-10-01 04:12:00,50.9,39.6,30.22,NNW,338,3.0,3.0,65,0.00,,,0.00,meteohub,2013-10-01 08:12:00,
2013-10-01 04:17:00,50.9,39.9,30.25,NW,315,2.0,4.0,66,0.00,,,0.00,meteohub,2013-10-01 08:17:00,
2013-10-01 04:22:00,51.1,40.1,30.25,NNW,338,2.0,4.0,66,0.00,,,0.00,meteohub,2013-10-01 08:22:00,
2013-10-01 04:27:00,51.1,40.1,30.25,NNW,338,3.0,4.0,66,0.00,,,0.00,meteohub,2013-10-01 08:27:00,
2013-10-01 04:32:00,51.3,40.6,30.21,NNW,338,2.0,4.0,67,0.00,,,0.00,meteohub,2013-10-01 08:32:00,
2013-10-01 04:37:00,51.6,41.4,30.21,NW,315,2.0,4.0,68,0.00,,,0.00,meteohub,2013-10-01 08:37:00,
2013-10-01 04:42:00,51.4,40.8,30.21,NNW,338,3.0,4.0,67,0.00,,,0.00,meteohub,2013-10-01 08:42:00,
2013-10-01 04:47:00,51.6,41.0,30.24,NNW,338,2.0,4.0,67,0.00,,,0.00,meteohub,2013-10-01 08:47:00,
2013-10-01 04:52:00,51.8,41.5,30.24,NW,315,2.0,3.0,68,0.00,,,0.00,meteohub,2013-10-01 08:52:00,
2013-10-01 04:57:00,52.0,41.7,30.24,NNW,338,2.0,3.0,68,0.00,,,0.00,meteohub,2013-10-01 08:57:00,
2013-10-01 05:02:00,52.0,41.7,30.21,NNW,338,3.0,3.0,68,0.00,,,0.00,meteohub,2013-10-01 09:02:00,
2013-10-01 05:07:00,52.0,41.4,30.21,NW,315,2.0,3.0,67,0.00,,,0.00,meteohub,2013-10-01 09:07:00,
2013-10-01 05:13:00,51.8,40.8,30.21,NW,315,2.0,4.0,66,0.00,,,0.00,meteohub,2013-10-01 09:13:00,
2013-10-01 05:18:00,51.6,40.6,30.24,NW,315,2.0,4.0,66,0.00,,,0.00,meteohub,2013-10-01 09:18:00,
2013-10-01 05:23:00,51.4,40.5,30.25,WNW,292,2.0,4.0,66,0.00,,,0.00,meteohub,2013-10-01 09:23:00,
2013-10-01 05:28:00,51.3,40.3,30.25,NW,315,2.0,3.0,66,0.00,,,0.00,meteohub,2013-10-01 09:28:00,
2013-10-01 05:33:00,51.1,40.1,30.25,NW,315,2.0,3.0,66,0.00,,,0.00,meteohub,2013-10-01 09:33:00,
2013-10-01 05:38:00,51.1,40.1,30.25,WNW,292,2.0,3.0,66,0.00,,,0.00,meteohub,2013-10-01 09:38:00,
2013-10-01 05:43:00,50.9,40.3,30.25,NW,315,2.0,3.0,67,0.00,,,0.00,meteohub,2013-10-01 09:43:00,
2013-10-01 05:48:00,50.9,40.3,30.25,NW,315,2.0,3.0,67,0.00,,,0.00,meteohub,2013-10-01 09:48:00,
2013-10-01 05:53:00,50.9,40.8,30.25,WNW,292,2.0,3.0,68,0.00,,,0.00,meteohub,2013-10-01 09:53:00,
2013-10-01 05:58:00,51.1,41.4,30.25,WNW,292,2.0,3.0,69,0.00,,,0.00,meteohub,2013-10-01 09:58:00,
2013-10-01 06:03:00,51.3,41.9,30.25,WNW,292,2.0,3.0,70,0.00,,,0.00,meteohub,2013-10-01 10:03:00,
2013-10-01 06:08:00,51.4,42.1,30.25,NNW,338,2.0,2.0,70,0.00,,,0.00,meteohub,2013-10-01 10:08:00,
2013-10-01 06:13:00,51.6,42.6,30.24,WNW,292,3.0,3.0,71,0.00,,,0.00,meteohub,2013-10-01 10:13:00,
2013-10-01 06:18:00,51.6,43.0,30.24,WNW,292,3.0,3.0,72,0.00,,,0.00,meteohub,2013-10-01 10:18:00,
2013-10-01 06:23:00,51.8,43.2,30.24,North,-999,-999.0,3.0,72,0.00,,,0.00,meteohub,2013-10-01 10:23:00,
2013-10-01 06:28:00,52.0,43.3,30.24,WNW,292,2.0,3.0,72,0.00,,,0.00,meteohub,2013-10-01 10:28:00,
2013-10-01 06:33:00,52.0,43.3,30.24,WNW,292,3.0,3.0,72,0.00,,,0.00,meteohub,2013-10-01 10:33:00,
2013-10-01 06:38:00,52.0,43.3,30.24,NNW,338,2.0,4.0,72,0.00,,,0.00,meteohub,2013-10-01 10:38:00,
2013-10-01 06:43:00,52.0,43.3,30.24,NW,315,3.0,4.0,72,0.00,,,0.00,meteohub,2013-10-01 10:43:00,
2013-10-01 06:48:00,52.0,43.3,30.24,NW,315,2.0,4.0,72,0.00,,,0.00,meteohub,2013-10-01 10:48:00,
2013-10-01 06:53:00,52.2,43.3,30.24,NW,315,2.0,3.0,72,0.00,,,0.00,meteohub,2013-10-01 10:53:00,
2013-10-01 06:58:00,52.2,43.3,30.24,WNW,292,2.0,3.0,72,0.00,,,0.00,meteohub,2013-10-01 10:58:00,
2013-10-01 07:03:00,52.3,43.5,30.27,WNW,292,2.0,4.0,72,0.00,,,0.00,meteohub,2013-10-01 11:03:00,
2013-10-01 07:08:00,52.5,43.7,30.27,NW,315,3.0,4.0,72,0.00,,,0.00,meteohub,2013-10-01 11:08:00,
2013-10-01 07:13:00,52.7,43.9,30.27,WNW,292,2.0,4.0,72,0.00,,,0.00,meteohub,2013-10-01 11:13:00,
2013-10-01 07:18:00,52.7,43.9,30.27,WNW,292,2.0,3.0,72,0.00,,,0.00,meteohub,2013-10-01 11:18:00,
2013-10-01 07:24:00,52.9,44.1,30.27,NNW,338,2.0,3.0,72,0.00,,,0.00,meteohub,2013-10-01 11:24:00,
2013-10-01 07:29:00,52.9,44.1,30.27,NW,315,2.0,3.0,72,0.00,,,0.00,meteohub,2013-10-01 11:29:00,
2013-10-01 07:34:00,53.1,43.9,30.27,WNW,292,2.0,3.0,71,0.00,,,0.00,meteohub,2013-10-01 11:34:00,
2013-10-01 07:40:00,53.2,44.1,30.26,NW,315,2.0,3.0,71,0.00,,,0.00,meteohub,2013-10-01 11:40:00,
2013-10-01 07:46:00,53.2,43.7,30.26,WNW,292,2.0,3.0,70,0.00,,,0.00,meteohub,2013-10-01 11:46:00,
2013-10-01 07:51:00,53.1,43.5,30.27,WNW,292,3.0,3.0,70,0.00,,,0.00,meteohub,2013-10-01 11:51:00,
2013-10-01 07:56:00,53.2,43.3,30.26,NW,315,2.0,3.0,69,0.00,,,0.00,meteohub,2013-10-01 11:56:00,
2013-10-01 08:01:00,53.1,43.2,30.27,NW,315,2.0,3.0,69,0.00,,,0.00,meteohub,2013-10-01 12:01:00,
2013-10-01 08:06:00,53.1,42.8,30.27,NW,315,2.0,3.0,68,0.00,,,0.00,meteohub,2013-10-01 12:06:00,
2013-10-01 08:11:00,53.1,42.8,30.27,NW,315,2.0,3.0,68,0.00,,,0.00,meteohub,2013-10-01 12:11:00,
2013-10-01 08:16:00,53.1,42.8,30.27,WNW,292,1.0,3.0,68,0.00,,,0.00,meteohub,2013-10-01 12:16:00,
2013-10-01 08:21:00,53.2,43.0,30.26,NW,315,2.0,3.0,68,0.00,,,0.00,meteohub,2013-10-01 12:21:00,
2013-10-01 08:26:00,53.2,43.0,30.26,NW,315,3.0,3.0,68,0.00,,,0.00,meteohub,2013-10-01 12:26:00,
2013-10-01 08:31:00,53.4,43.5,30.26,NNW,338,3.0,4.0,69,0.00,,,0.00,meteohub,2013-10-01 12:31:00,
2013-10-01 08:36:00,53.6,43.7,30.26,NW,315,2.0,4.0,69,0.00,,,0.00,meteohub,2013-10-01 12:36:00,
2013-10-01 08:41:00,54.0,44.1,30.26,WNW,292,3.0,4.0,69,0.00,,,0.00,meteohub,2013-10-01 12:41:00,
2013-10-01 08:46:00,54.3,44.8,30.29,NW,315,2.0,4.0,70,0.00,,,0.00,meteohub,2013-10-01 12:46:00,
2013-10-01 08:52:00,54.5,45.0,30.29,WNW,292,2.0,4.0,70,0.00,,,0.00,meteohub,2013-10-01 12:52:00,
2013-10-01 08:57:00,54.9,45.3,30.29,NW,315,2.0,3.0,70,0.00,,,0.00,meteohub,2013-10-01 12:57:00,
2013-10-01 09:02:00,55.2,45.7,30.25,NW,315,2.0,3.0,70,0.00,,,0.00,meteohub,2013-10-01 13:02:00,
2013-10-01 09:07:00,55.4,45.9,30.25,NNW,338,2.0,3.0,70,0.00,,,0.00,meteohub,2013-10-01 13:07:00,
2013-10-01 09:12:00,55.8,46.2,30.25,NW,315,2.0,3.0,70,0.00,,,0.00,meteohub,2013-10-01 13:12:00,
2013-10-01 09:17:00,55.9,46.4,30.28,NW,315,2.0,3.0,70,0.00,,,0.00,meteohub,2013-10-01 13:17:00,
2013-10-01 09:22:00,56.1,46.4,30.27,NNW,338,3.0,3.0,70,0.00,,,0.00,meteohub,2013-10-01 13:22:00,
2013-10-01 09:27:00,56.7,46.9,30.27,NNW,338,3.0,3.0,70,0.00,,,0.00,meteohub,2013-10-01 13:27:00,
2013-10-01 09:32:00,56.8,47.1,30.27,North,0,2.0,3.0,70,0.00,,,0.00,meteohub,2013-10-01 13:32:00,
2013-10-01 09:37:00,57.2,47.1,30.27,WNW,292,2.0,3.0,69,0.00,,,0.00,meteohub,2013-10-01 13:37:00,
2013-10-01 09:42:00,57.6,47.5,30.26,NW,315,2.0,3.0,69,0.00,,,0.00,meteohub,2013-10-01 13:42:00,
2013-10-01 09:47:00,57.7,47.7,30.26,North,0,3.0,3.0,69,0.00,,,0.00,meteohub,2013-10-01 13:47:00,
2013-10-01 09:53:00,58.1,47.7,30.26,NW,315,2.0,3.0,68,0.00,,,0.00,meteohub,2013-10-01 13:53:00,
2013-10-01 09:58:00,58.5,47.5,30.26,NW,315,3.0,3.0,67,0.00,,,0.00,meteohub,2013-10-01 13:58:00,
2013-10-01 10:03:00,58.8,47.5,30.25,WNW,292,2.0,4.0,66,0.00,,,0.00,meteohub,2013-10-01 14:03:00,
2013-10-01 10:08:00,59.0,46.4,30.25,NNW,338,2.0,4.0,63,0.00,,,0.00,meteohub,2013-10-01 14:08:00,
2013-10-01 10:13:00,59.4,45.5,30.25,WNW,292,2.0,4.0,60,0.00,,,0.00,meteohub,2013-10-01 14:13:00,
2013-10-01 10:18:00,59.7,45.3,30.25,NW,315,3.0,3.0,59,0.00,,,0.00,meteohub,2013-10-01 14:18:00,
2013-10-01 10:23:00,60.1,45.3,30.25,WNW,292,4.0,4.0,58,0.00,,,0.00,meteohub,2013-10-01 14:23:00,
2013-10-01 10:28:00,60.4,44.6,30.24,NW,315,2.0,4.0,56,0.00,,,0.00,meteohub,2013-10-01 14:28:00,
2013-10-01 10:33:00,60.6,44.4,30.24,NW,315,1.0,4.0,55,0.00,,,0.00,meteohub,2013-10-01 14:33:00,
2013-10-01 10:38:00,61.0,43.7,30.24,WNW,292,2.0,4.0,53,0.00,,,0.00,meteohub,2013-10-01 14:38:00,
2013-10-01 10:44:00,61.3,44.6,30.23,WNW,292,3.0,4.0,54,0.00,,,0.00,meteohub,2013-10-01 14:44:00,
2013-10-01 10:49:00,61.7,42.4,30.23,NW,315,3.0,4.0,49,0.00,,,0.00,meteohub,2013-10-01 14:49:00,
2013-10-01 10:55:00,62.1,42.1,30.23,WNW,292,3.0,5.0,48,0.00,,,0.00,meteohub,2013-10-01 14:55:00,
2013-10-01 11:00:00,62.4,41.9,30.22,WNW,292,4.0,5.0,47,0.00,,,0.00,meteohub,2013-10-01 15:00:00,
2013-10-01 11:05:00,63.0,42.4,30.22,West,270,3.0,5.0,47,0.00,,,0.00,meteohub,2013-10-01 15:05:00,
2013-10-01 11:10:00,63.5,43.0,30.22,WNW,292,4.0,4.0,47,0.00,,,0.00,meteohub,2013-10-01 15:10:00,
2013-10-01 11:15:00,64.0,42.8,30.21,WNW,292,3.0,4.0,46,0.00,,,0.00,meteohub,2013-10-01 15:15:00,
2013-10-01 11:20:00,63.7,41.4,30.25,North,0,2.0,4.0,44,0.00,,,0.00,meteohub,2013-10-01 15:20:00,
2013-10-01 11:25:00,63.1,40.8,30.25,WNW,292,2.0,4.0,44,0.00,,,0.00,meteohub,2013-10-01 15:25:00,
2013-10-01 11:30:00,63.0,38.8,30.26,WNW,292,2.0,4.0,41,0.00,,,0.00,meteohub,2013-10-01 15:30:00,
2013-10-01 11:35:00,64.0,41.2,30.21,West,270,2.0,4.0,43,0.00,,,0.00,meteohub,2013-10-01 15:35:00,
2013-10-01 11:40:00,65.1,41.5,30.20,NW,315,2.0,4.0,42,0.00,,,0.00,meteohub,2013-10-01 15:40:00,
2013-10-01 11:45:00,65.3,41.0,30.20,NNW,338,1.0,4.0,41,0.00,,,0.00,meteohub,2013-10-01 15:45:00,
2013-10-01 11:50:00,64.6,39.7,30.21,West,270,2.0,4.0,40,0.00,,,0.00,meteohub,2013-10-01 15:50:00,
2013-10-01 11:55:00,63.7,38.3,30.22,WNW,292,2.0,4.0,39,0.00,,,0.00,meteohub,2013-10-01 15:55:00,
2013-10-01 12:00:00,63.3,38.7,30.22,NW,315,3.0,3.0,40,0.00,,,0.00,meteohub,2013-10-01 16:00:00,
2013-10-01 12:05:00,63.3,39.2,30.22,WNW,292,0.0,3.0,41,0.00,,,0.00,meteohub,2013-10-01 16:05:00,
2013-10-01 12:10:00,64.0,39.2,30.21,SW,225,1.0,3.0,40,0.00,,,0.00,meteohub,2013-10-01 16:10:00,
2013-10-01 12:15:00,64.4,40.3,30.21,WNW,292,2.0,4.0,41,0.00,,,0.00,meteohub,2013-10-01 16:15:00,
2013-10-01 12:20:00,64.4,39.6,30.21,WSW,248,0.0,4.0,40,0.00,,,0.00,meteohub,2013-10-01 16:20:00,
2013-10-01 12:25:00,64.9,40.1,30.21,SE,135,2.0,4.0,40,0.00,,,0.00,meteohub,2013-10-01 16:25:00,
2013-10-01 12:30:00,66.0,39.0,30.20,North,0,3.0,5.0,37,0.00,,,0.00,meteohub,2013-10-01 16:30:00,
2013-10-01 12:31:00,66.0,39.0,30.20,NNW,338,3.0,5.0,37,0.00,,,0.00,meteohub,2013-10-01 16:31:00,
2013-10-01 12:36:00,66.4,37.9,30.19,WNW,292,3.0,5.0,35,0.00,,,0.00,meteohub,2013-10-01 16:36:00,
2013-10-01 12:41:00,65.8,37.4,30.20,West,270,1.0,5.0,35,0.00,,,0.00,meteohub,2013-10-01 16:41:00,
2013-10-01 12:46:00,65.5,37.9,30.20,WNW,292,0.0,4.0,36,0.00,,,0.00,meteohub,2013-10-01 16:46:00,
2013-10-01 12:52:00,65.5,38.5,30.20,WNW,292,1.0,4.0,37,0.00,,,0.00,meteohub,2013-10-01 16:52:00,
2013-10-01 12:57:00,66.6,38.1,30.19,SE,135,1.0,2.0,35,0.00,,,0.00,meteohub,2013-10-01 16:57:00,
2013-10-01 13:02:00,66.9,36.9,30.19,NNW,338,1.0,4.0,33,0.00,,,0.00,meteohub,2013-10-01 17:02:00,
2013-10-01 13:07:00,66.7,38.3,30.19,NNW,338,0.0,4.0,35,0.00,,,0.00,meteohub,2013-10-01 17:07:00,
2013-10-01 13:12:00,66.4,37.2,30.19,SSE,158,1.0,4.0,34,0.00,,,0.00,meteohub,2013-10-01 17:12:00,
2013-10-01 13:17:00,66.4,37.2,30.19,WSW,248,0.0,4.0,34,0.00,,,0.00,meteohub,2013-10-01 17:17:00,
2013-10-01 13:22:00,66.7,37.6,30.19,SSW,202,0.0,4.0,34,0.00,,,0.00,meteohub,2013-10-01 17:22:00,
2013-10-01 13:27:00,66.9,36.9,30.19,NNE,22,0.0,4.0,33,0.00,,,0.00,meteohub,2013-10-01 17:27:00,
2013-10-01 13:32:00,66.6,37.4,30.19,NW,315,0.0,4.0,34,0.00,,,0.00,meteohub,2013-10-01 17:32:00,
2013-10-01 13:37:00,66.4,37.2,30.19,WNW,292,3.0,4.0,34,0.00,,,0.00,meteohub,2013-10-01 17:37:00,
2013-10-01 13:42:00,66.7,37.6,30.19,WNW,292,2.0,3.0,34,0.00,,,0.00,meteohub,2013-10-01 17:42:00,
2013-10-01 13:47:00,68.0,38.7,30.18,WNW,292,2.0,3.0,34,0.00,,,0.00,meteohub,2013-10-01 17:47:00,
2013-10-01 13:52:00,70.2,39.0,30.17,WNW,292,2.0,4.0,32,0.00,,,0.00,meteohub,2013-10-01 17:52:00,
2013-10-01 13:57:00,69.8,38.7,30.17,WNW,292,2.0,4.0,32,0.00,,,0.00,meteohub,2013-10-01 17:57:00,
2013-10-01 14:02:00,70.2,39.0,30.17,WNW,292,0.0,4.0,32,0.00,,,0.00,meteohub,2013-10-01 18:02:00,
2013-10-01 14:07:00,71.8,37.0,30.16,NE,45,3.0,3.0,28,0.00,,,0.00,meteohub,2013-10-01 18:07:00,
2013-10-01 14:12:00,72.0,36.1,30.15,WSW,248,3.0,6.0,27,0.00,,,0.00,meteohub,2013-10-01 18:12:00,
2013-10-01 14:17:00,72.0,35.2,30.12,NW,315,2.0,6.0,26,0.00,,,0.00,meteohub,2013-10-01 18:17:00,
2013-10-01 14:22:00,73.9,36.9,30.11,NW,315,2.0,6.0,26,0.00,,,0.00,meteohub,2013-10-01 18:22:00,
2013-10-01 14:27:00,72.7,34.9,30.12,NW,315,3.0,4.0,25,0.00,,,0.00,meteohub,2013-10-01 18:27:00,
2013-10-01 14:33:00,70.3,33.8,30.13,WNW,292,2.0,4.0,26,0.00,,,0.00,meteohub,2013-10-01 18:33:00,
2013-10-01 14:38:00,72.1,36.3,30.12,NNW,338,3.0,4.0,27,0.00,,,0.00,meteohub,2013-10-01 18:38:00,
2013-10-01 14:43:00,73.0,36.1,30.11,WNW,292,0.0,4.0,26,0.00,,,0.00,meteohub,2013-10-01 18:43:00,
2013-10-01 14:48:00,71.6,34.9,30.12,NW,315,2.0,4.0,26,0.00,,,0.00,meteohub,2013-10-01 18:48:00,
2013-10-01 14:53:00,70.7,35.1,30.13,WNW,292,0.0,4.0,27,0.00,,,0.00,meteohub,2013-10-01 18:53:00,
2013-10-01 14:58:00,70.3,35.8,30.13,WNW,292,0.0,4.0,28,0.00,,,0.00,meteohub,2013-10-01 18:58:00,
2013-10-01 15:03:00,72.9,37.9,30.11,WNW,292,0.0,3.0,28,0.00,,,0.00,meteohub,2013-10-01 19:03:00,
2013-10-01 15:09:00,72.5,37.6,30.12,WNW,292,1.0,3.0,28,0.00,,,0.00,meteohub,2013-10-01 19:09:00,
2013-10-01 15:15:00,71.1,35.4,30.13,WNW,292,3.0,3.0,27,0.00,,,0.00,meteohub,2013-10-01 19:15:00,
2013-10-01 15:20:00,70.7,36.9,30.13,NW,315,3.0,3.0,29,0.00,,,0.00,meteohub,2013-10-01 19:20:00,
2013-10-01 15:25:00,70.3,35.8,30.13,WNW,292,0.0,3.0,28,0.00,,,0.00,meteohub,2013-10-01 19:25:00,
2013-10-01 15:30:00,70.3,36.7,30.13,North,0,1.0,3.0,29,0.00,,,0.00,meteohub,2013-10-01 19:30:00,
2013-10-01 15:35:00,70.2,33.8,30.13,NE,45,1.0,3.0,26,0.00,,,0.00,meteohub,2013-10-01 19:35:00,
2013-10-01 15:40:00,70.3,35.8,30.13,NW,315,3.0,4.0,28,0.00,,,0.00,meteohub,2013-10-01 19:40:00,
2013-10-01 15:45:00,69.8,35.2,30.14,WNW,292,1.0,4.0,28,0.00,,,0.00,meteohub,2013-10-01 19:45:00,
2013-10-01 15:50:00,69.6,36.9,30.10,WNW,292,3.0,4.0,30,0.00,,,0.00,meteohub,2013-10-01 19:50:00,
2013-10-01 15:55:00,69.1,36.3,30.11,WNW,292,0.0,4.0,30,0.00,,,0.00,meteohub,2013-10-01 19:55:00,
2013-10-01 16:00:00,69.1,36.3,30.11,SW,225,2.0,4.0,30,0.00,,,0.00,meteohub,2013-10-01 20:00:00,
2013-10-01 16:05:00,69.1,33.8,30.11,South,180,4.0,4.0,27,0.00,,,0.00,meteohub,2013-10-01 20:05:00,
2013-10-01 16:10:00,69.3,34.9,30.11,WSW,248,3.0,4.0,28,0.00,,,0.00,meteohub,2013-10-01 20:10:00,
2013-10-01 16:15:00,68.7,35.2,30.11,WNW,292,2.0,9.0,29,0.00,,,0.00,meteohub,2013-10-01 20:15:00,
2013-10-01 16:21:00,67.8,35.2,30.12,WNW,292,2.0,9.0,30,0.00,,,0.00,meteohub,2013-10-01 20:21:00,
2013-10-01 16:26:00,67.3,34.9,30.12,NW,315,0.0,6.0,30,0.00,,,0.00,meteohub,2013-10-01 20:26:00,
2013-10-01 16:31:00,67.1,35.4,30.12,WNW,292,2.0,4.0,31,0.00,,,0.00,meteohub,2013-10-01 20:31:00,
2013-10-01 16:36:00,66.9,36.9,30.16,WNW,292,3.0,3.0,33,0.00,,,0.00,meteohub,2013-10-01 20:36:00,
2013-10-01 16:41:00,66.7,36.7,30.16,NW,315,2.0,3.0,33,0.00,,,0.00,meteohub,2013-10-01 20:41:00,
2013-10-01 16:46:00,66.6,36.7,30.16,WNW,292,3.0,4.0,33,0.00,,,0.00,meteohub,2013-10-01 20:46:00,
2013-10-01 16:51:00,66.2,37.0,30.16,NW,315,1.0,4.0,34,0.00,,,0.00,meteohub,2013-10-01 20:51:00,
2013-10-01 16:56:00,65.8,37.4,30.17,West,270,2.0,4.0,35,0.00,,,0.00,meteohub,2013-10-01 20:56:00,
2013-10-01 17:01:00,65.5,37.2,30.17,WNW,292,2.0,4.0,35,0.00,,,0.00,meteohub,2013-10-01 21:01:00,
2013-10-01 17:06:00,65.1,36.9,30.14,WNW,292,2.0,4.0,35,0.00,,,0.00,meteohub,2013-10-01 21:06:00,
2013-10-01 17:11:00,64.8,36.5,30.14,WNW,292,2.0,4.0,35,0.00,,,0.00,meteohub,2013-10-01 21:11:00,
2013-10-01 17:16:00,64.4,36.1,30.14,NW,315,2.0,4.0,35,0.00,,,0.00,meteohub,2013-10-01 21:16:00,
2013-10-01 17:21:00,64.2,36.7,30.14,NW,315,2.0,4.0,36,0.00,,,0.00,meteohub,2013-10-01 21:21:00,
2013-10-01 17:26:00,63.9,36.5,30.15,WNW,292,2.0,4.0,36,0.00,,,0.00,meteohub,2013-10-01 21:26:00,
2013-10-01 17:31:00,63.7,36.3,30.18,WNW,292,4.0,4.0,36,0.00,,,0.00,meteohub,2013-10-01 21:31:00,
2013-10-01 17:36:00,63.3,36.7,30.19,NW,315,2.0,4.0,37,0.00,,,0.00,meteohub,2013-10-01 21:36:00,
2013-10-01 17:41:00,63.0,36.3,30.19,NW,315,2.0,4.0,37,0.00,,,0.00,meteohub,2013-10-01 21:41:00,
2013-10-01 17:46:00,62.8,36.9,30.19,NNW,338,2.0,4.0,38,0.00,,,0.00,meteohub,2013-10-01 21:46:00,
2013-10-01 17:51:00,62.6,36.7,30.19,WNW,292,2.0,4.0,38,0.00,,,0.00,meteohub,2013-10-01 21:51:00,
2013-10-01 17:56:00,62.2,37.0,30.19,WNW,292,2.0,4.0,39,0.00,,,0.00,meteohub,2013-10-01 21:56:00,
2013-10-01 18:02:00,62.1,38.1,30.19,WNW,292,2.0,4.0,41,0.00,,,0.00,meteohub,2013-10-01 22:02:00,
2013-10-01 18:07:00,61.9,38.5,30.19,WNW,292,2.0,3.0,42,0.00,,,0.00,meteohub,2013-10-01 22:07:00,
2013-10-01 18:12:00,61.7,39.0,30.20,WNW,292,2.0,3.0,43,0.00,,,0.00,meteohub,2013-10-01 22:12:00,
2013-10-01 18:17:00,61.3,38.7,30.20,WNW,292,3.0,3.0,43,0.00,,,0.00,meteohub,2013-10-01 22:17:00,
2013-10-01 18:22:00,61.2,39.0,30.20,WNW,292,2.0,3.0,44,0.00,,,0.00,meteohub,2013-10-01 22:22:00,
2013-10-01 18:27:00,61.0,39.0,30.20,NW,315,3.0,3.0,44,0.00,,,0.00,meteohub,2013-10-01 22:27:00,
2013-10-01 18:32:00,60.6,39.2,30.21,WNW,292,2.0,3.0,45,0.00,,,0.00,meteohub,2013-10-01 22:32:00,
2013-10-01 18:38:00,60.4,39.0,30.21,WNW,292,2.0,3.0,45,0.00,,,0.00,meteohub,2013-10-01 22:38:00,
2013-10-01 18:43:00,60.3,39.4,30.21,WNW,292,2.0,3.0,46,0.00,,,0.00,meteohub,2013-10-01 22:43:00,
2013-10-01 18:48:00,60.1,39.2,30.21,WNW,292,2.0,3.0,46,0.00,,,0.00,meteohub,2013-10-01 22:48:00,
2013-10-01 18:53:00,59.9,39.6,30.21,NW,315,2.0,3.0,47,0.00,,,0.00,meteohub,2013-10-01 22:53:00,
2013-10-01 18:58:00,59.7,39.6,30.21,NW,315,2.0,3.0,47,0.00,,,0.00,meteohub,2013-10-01 22:58:00,
2013-10-01 19:03:00,59.5,39.9,30.22,NW,315,2.0,3.0,48,0.00,,,0.00,meteohub,2013-10-01 23:03:00,
2013-10-01 19:08:00,59.4,39.7,30.22,WNW,292,2.0,3.0,48,0.00,,,0.00,meteohub,2013-10-01 23:08:00,
2013-10-01 19:13:00,59.2,40.1,30.22,NW,315,2.0,3.0,49,0.00,,,0.00,meteohub,2013-10-01 23:13:00,
2013-10-01 19:18:00,59.2,40.1,30.22,NW,315,2.0,3.0,49,0.00,,,0.00,meteohub,2013-10-01 23:18:00,
2013-10-01 19:20:00,59.0,39.9,30.22,NW,315,2.0,3.0,49,0.00,,,0.00,meteohub,2013-10-01 23:20:00,
2013-10-01 19:25:00,58.8,40.3,30.22,NW,315,2.0,3.0,50,0.00,,,0.00,meteohub,2013-10-01 23:25:00,
2013-10-01 19:30:00,58.6,40.1,30.22,NW,315,2.0,3.0,50,0.00,,,0.00,meteohub,2013-10-01 23:30:00,
2013-10-01 19:35:00,58.5,39.9,30.22,NW,315,2.0,3.0,50,0.00,,,0.00,meteohub,2013-10-01 23:35:00,
2013-10-01 19:40:00,58.5,39.9,30.22,NW,315,2.0,3.0,50,0.00,,,0.00,meteohub,2013-10-01 23:40:00,
2013-10-01 19:45:00,58.3,39.7,30.22,NW,315,1.0,3.0,50,0.00,,,0.00,meteohub,2013-10-01 23:45:00,
2013-10-01 19:51:00,58.1,39.6,30.22,WNW,292,2.0,3.0,50,0.00,,,0.00,meteohub,2013-10-01 23:51:00,
2013-10-01 19:56:00,58.1,39.6,30.22,WNW,292,2.0,3.0,50,0.00,,,0.00,meteohub,2013-10-01 23:56:00,
2013-10-01 20:01:00,57.9,39.9,30.23,NW,315,2.0,3.0,51,0.00,,,0.00,meteohub,2013-10-02 00:01:00,
2013-10-01 20:06:00,57.9,39.9,30.23,WNW,292,2.0,3.0,51,0.00,,,0.00,meteohub,2013-10-02 00:06:00,
2013-10-01 20:11:00,57.7,39.7,30.23,NW,315,2.0,3.0,51,0.00,,,0.00,meteohub,2013-10-02 00:11:00,
2013-10-01 20:16:00,57.7,40.3,30.23,NW,315,3.0,3.0,52,0.00,,,0.00,meteohub,2013-10-02 00:16:00,
2013-10-01 20:17:00,57.7,40.3,30.26,WNW,292,2.0,3.0,52,0.00,,,0.00,meteohub,2013-10-02 00:17:00,
2013-10-01 20:22:00,57.7,40.3,30.26,NW,315,2.0,3.0,52,0.00,,,0.00,meteohub,2013-10-02 00:22:00,
2013-10-01 20:27:00,57.7,40.3,30.26,NW,315,2.0,3.0,52,0.00,,,0.00,meteohub,2013-10-02 00:27:00,
2013-10-01 20:32:00,57.6,40.1,30.26,NW,315,3.0,3.0,52,0.00,,,0.00,meteohub,2013-10-02 00:32:00,
2013-10-01 20:37:00,57.7,40.3,30.26,NW,315,3.0,4.0,52,0.00,,,0.00,meteohub,2013-10-02 00:37:00,
2013-10-01 20:42:00,57.7,40.8,30.26,NNW,338,3.0,4.0,53,0.00,,,0.00,meteohub,2013-10-02 00:42:00,
2013-10-01 20:47:00,57.7,40.8,30.23,NW,315,3.0,4.0,53,0.00,,,0.00,meteohub,2013-10-02 00:47:00,
2013-10-01 20:52:00,57.7,40.3,30.23,NW,315,3.0,4.0,52,0.00,,,0.00,meteohub,2013-10-02 00:52:00,
2013-10-01 20:57:00,57.7,40.3,30.23,WNW,292,3.0,4.0,52,0.00,,,0.00,meteohub,2013-10-02 00:57:00,
2013-10-01 21:02:00,57.7,40.3,30.23,NW,315,2.0,3.0,52,0.00,,,0.00,meteohub,2013-10-02 01:02:00,
2013-10-01 21:07:00,57.7,40.3,30.23,NW,315,3.0,3.0,52,0.00,,,0.00,meteohub,2013-10-02 01:07:00,
2013-10-01 21:12:00,57.7,40.3,30.23,NW,315,2.0,3.0,52,0.00,,,0.00,meteohub,2013-10-02 01:12:00,
2013-10-01 21:17:00,57.9,40.5,30.23,NW,315,3.0,4.0,52,0.00,,,0.00,meteohub,2013-10-02 01:17:00,
2013-10-01 21:22:00,57.9,39.9,30.23,NW,315,2.0,4.0,51,0.00,,,0.00,meteohub,2013-10-02 01:22:00,
2013-10-01 21:27:00,57.7,39.7,30.23,NNW,338,3.0,4.0,51,0.00,,,0.00,meteohub,2013-10-02 01:27:00,
2013-10-01 21:32:00,57.7,39.7,30.23,NW,315,2.0,3.0,51,0.00,,,0.00,meteohub,2013-10-02 01:32:00,
2013-10-01 21:37:00,57.6,39.6,30.23,NNW,338,3.0,3.0,51,0.00,,,0.00,meteohub,2013-10-02 01:37:00,
2013-10-01 21:42:00,57.6,40.1,30.23,NW,315,2.0,3.0,52,0.00,,,0.00,meteohub,2013-10-02 01:42:00,
2013-10-01 21:47:00,57.6,39.6,30.26,NW,315,2.0,3.0,51,0.00,,,0.00,meteohub,2013-10-02 01:47:00,
2013-10-01 21:52:00,57.6,39.6,30.26,NW,315,2.0,3.0,51,0.00,,,0.00,meteohub,2013-10-02 01:52:00,
2013-10-01 21:57:00,57.4,39.4,30.27,NW,315,2.0,3.0,51,0.00,,,0.00,meteohub,2013-10-02 01:57:00,
2013-10-01 22:02:00,57.2,39.2,30.27,NNW,338,3.0,3.0,51,0.00,,,0.00,meteohub,2013-10-02 02:02:00,
2013-10-01 22:07:00,57.0,40.1,30.27,NW,315,2.0,4.0,53,0.00,,,0.00,meteohub,2013-10-02 02:07:00,
2013-10-01 22:12:00,56.7,39.7,30.27,NW,315,3.0,4.0,53,0.00,,,0.00,meteohub,2013-10-02 02:12:00,
2013-10-01 22:17:00,56.5,40.1,30.27,NW,315,3.0,4.0,54,0.00,,,0.00,meteohub,2013-10-02 02:17:00,
2013-10-01 22:22:00,56.1,39.7,30.27,NNW,338,3.0,4.0,54,0.00,,,0.00,meteohub,2013-10-02 02:22:00,
2013-10-01 22:27:00,55.9,39.6,30.28,NW,315,3.0,4.0,54,0.00,,,0.00,meteohub,2013-10-02 02:27:00,
2013-10-01 22:32:00,55.8,39.9,30.25,NW,315,2.0,4.0,55,0.00,,,0.00,meteohub,2013-10-02 02:32:00,
2013-10-01 22:37:00,55.4,39.6,30.25,NW,315,2.0,4.0,55,0.00,,,0.00,meteohub,2013-10-02 02:37:00,
2013-10-01 22:42:00,55.0,39.2,30.25,WNW,292,2.0,3.0,55,0.00,,,0.00,meteohub,2013-10-02 02:42:00,
2013-10-01 22:47:00,54.9,39.6,30.29,WNW,292,3.0,3.0,56,0.00,,,0.00,meteohub,2013-10-02 02:47:00,
2013-10-01 22:53:00,54.7,39.4,30.29,NNW,338,2.0,3.0,56,0.00,,,0.00,meteohub,2013-10-02 02:53:00,
2013-10-01 22:58:00,54.5,39.6,30.29,NW,315,2.0,3.0,57,0.00,,,0.00,meteohub,2013-10-02 02:58:00,
2013-10-01 23:03:00,54.5,39.6,30.29,NW,315,2.0,3.0,57,0.00,,,0.00,meteohub,2013-10-02 03:03:00,
2013-10-01 23:08:00,54.5,40.1,30.29,NW,315,2.0,3.0,58,0.00,,,0.00,meteohub,2013-10-02 03:08:00,
2013-10-01 23:13:00,54.3,39.9,30.29,NNW,338,1.0,3.0,58,0.00,,,0.00,meteohub,2013-10-02 03:13:00,
2013-10-01 23:18:00,54.3,39.9,30.29,North,0,3.0,3.0,58,0.00,,,0.00,meteohub,2013-10-02 03:18:00,
2013-10-01 23:23:00,54.5,40.1,30.29,NW,315,2.0,3.0,58,0.00,,,0.00,meteohub,2013-10-02 03:23:00,
2013-10-01 23:28:00,54.5,40.1,30.29,NW,315,3.0,4.0,58,0.00,,,0.00,meteohub,2013-10-02 03:28:00,
2013-10-01 23:33:00,54.7,39.7,30.29,NNW,338,1.0,4.0,57,0.00,,,0.00,meteohub,2013-10-02 03:33:00,
2013-10-01 23:38:00,54.9,39.6,30.29,NW,315,2.0,3.0,56,0.00,,,0.00,meteohub,2013-10-02 03:38:00,
2013-10-01 23:43:00,54.9,39.0,30.29,NNW,338,2.0,3.0,55,0.00,,,0.00,meteohub,2013-10-02 03:43:00,
2013-10-01 23:48:00,54.9,38.5,30.29,NNW,338,2.0,3.0,54,0.00,,,0.00,meteohub,2013-10-02 03:48:00,
2013-10-01 23:53:00,54.9,39.0,30.29,NNW,338,2.0,3.0,55,0.00,,,0.00,meteohub,2013-10-02 03:53:00,
2013-10-01 23:58:00,54.9,38.5,30.29,NNW,338,2.0,3.0,54,0.00,,,0.00,meteohub,2013-10-02 03:58:00,